Time,TemperatureF,DewpointF,PressureIn,WindDirection,WindDirectionDegrees,WindSpeedMPH,WindSpeedGustMPH,Humidity,HourlyPrecipIn,Conditions,Clouds,dailyrainin,SolarRadiationWatts/m^2,SoftwareType,DateUTC
2013-04-28 00:02:00,57.0,44.0,-100.00,South,175,6.0,12.0,62,0.00,,,0.00,0.000000,,2013-04-28 05:02:00,
2013-04-28 00:32:00,56.0,44.0,-100.00,South,170,7.0,11.0,65,0.00,,,0.00,0.000000,,2013-04-28 05:32:00,
2013-04-28 00:42:00,56.0,44.0,-100.00,South,170,7.0,11.0,65,0.00,,,0.00,0.000000,,2013-04-28 05:42:00,
2013-04-28 00:52:00,56.0,44.0,-100.00,South,170,7.0,11.0,65,0.00,,,0.00,0.000000,,2013-04-28 05:52:00,
2013-04-28 01:01:00,56.0,44.0,-100.00,South,170,7.0,11.0,65,0.00,,,0.00,0.000000,,2013-04-28 06:01:00,
2013-04-28 01:32:00,55.0,44.0,-100.00,SSE,168,5.0,10.0,66,0.00,,,0.00,0.000000,,2013-04-28 06:32:00,
2013-04-28 01:42:00,55.0,44.0,-100.00,SSE,168,5.0,10.0,66,0.00,,,0.00,0.000000,,2013-04-28 06:42:00,
2013-04-28 01:52:00,55.0,44.0,-100.00,SSE,168,5.0,10.0,66,0.00,,,0.00,0.000000,,2013-04-28 06:52:00,
2013-04-28 02:01:00,55.0,44.0,-100.00,SSE,168,5.0,10.0,66,0.00,,,0.00,0.000000,,2013-04-28 07:01:00,
2013-04-28 02:32:00,53.0,44.0,-100.00,SSE,168,5.0,7.0,71,0.00,,,0.00,0.000000,,2013-04-28 07:32:00,
2013-04-28 02:42:00,53.0,44.0,-100.00,SSE,168,5.0,7.0,71,0.00,,,0.00,0.000000,,2013-04-28 07:42:00,
2013-04-28 02:52:00,53.0,44.0,-100.00,SSE,168,5.0,7.0,71,0.00,,,0.00,0.000000,,2013-04-28 07:52:00,
2013-04-28 03:02:00,53.0,44.0,-100.00,SSE,168,5.0,7.0,71,0.00,,,0.00,0.000000,,2013-04-28 08:02:00,
2013-04-28 03:32:00,48.0,43.0,-100.00,SSE,165,4.0,9.0,84,0.00,,,0.00,0.000000,,2013-04-28 08:32:00,
2013-04-28 03:42:00,48.0,43.0,-100.00,SSE,165,4.0,9.0,84,0.00,,,0.00,0.000000,,2013-04-28 08:42:00,
2013-04-28 03:52:00,48.0,43.0,-100.00,SSE,165,4.0,9.0,84,0.00,,,0.00,0.000000,,2013-04-28 08:52:00,
2013-04-28 04:01:00,48.0,43.0,-100.00,SSE,165,4.0,9.0,84,0.00,,,0.00,0.000000,,2013-04-28 09:01:00,
2013-04-28 04:33:00,45.0,42.0,-100.00,SE,131,2.0,6.0,89,0.00,,,0.00,0.000000,,2013-04-28 09:33:00,
2013-04-28 04:42:00,45.0,42.0,-100.00,SE,131,2.0,6.0,89,0.00,,,0.00,0.000000,,2013-04-28 09:42:00,
2013-04-28 04:53:00,45.0,42.0,-100.00,SE,131,2.0,6.0,89,0.00,,,0.00,0.000000,,2013-04-28 09:53:00,
2013-04-28 05:03:00,45.0,42.0,-100.00,SE,131,2.0,6.0,89,0.00,,,0.00,0.000000,,2013-04-28 10:03:00,
2013-04-28 05:32:00,42.0,41.0,-100.00,South,185,2.0,4.0,97,0.00,,,0.00,0.000000,,2013-04-28 10:32:00,
2013-04-28 05:42:00,42.0,41.0,-100.00,South,185,2.0,4.0,97,0.00,,,0.00,0.000000,,2013-04-28 10:42:00,
2013-04-28 05:53:00,42.0,41.0,-100.00,South,185,2.0,4.0,97,0.00,,,0.00,0.000000,,2013-04-28 10:53:00,
2013-04-28 06:02:00,42.0,41.0,-100.00,South,185,2.0,4.0,97,0.00,,,0.00,0.000000,,2013-04-28 11:02:00,
2013-04-28 06:32:00,40.0,39.0,-100.00,South,187,0.0,4.0,96,0.00,,,0.00,1.000000,,2013-04-28 11:32:00,
2013-04-28 06:42:00,40.0,39.0,-100.00,South,187,0.0,4.0,96,0.00,,,0.00,1.000000,,2013-04-28 11:42:00,
2013-04-28 06:52:00,40.0,39.0,-100.00,South,187,0.0,4.0,96,0.00,,,0.00,1.000000,,2013-04-28 11:52:00,
2013-04-28 07:02:00,40.0,39.0,-100.00,South,187,0.0,4.0,96,0.00,,,0.00,1.000000,,2013-04-28 12:02:00,
2013-04-28 07:32:00,44.0,44.0,-100.00,NNE,23,0.0,2.0,100,0.00,,,0.00,57.000000,,2013-04-28 12:32:00,
2013-04-28 07:42:00,44.0,44.0,-100.00,NNE,23,0.0,2.0,100,0.00,,,0.00,57.000000,,2013-04-28 12:42:00,
2013-04-28 07:52:00,44.0,44.0,-100.00,NNE,23,0.0,2.0,100,0.00,,,0.00,57.000000,,2013-04-28 12:52:00,
2013-04-28 08:02:00,44.0,44.0,-100.00,NNE,23,0.0,2.0,100,0.00,,,0.00,57.000000,,2013-04-28 13:02:00,
2013-04-28 08:32:00,54.0,49.0,-100.00,SSE,160,3.0,5.0,83,0.00,,,0.00,167.000000,,2013-04-28 13:32:00,
2013-04-28 08:42:00,54.0,49.0,-100.00,SSE,160,3.0,5.0,83,0.00,,,0.00,167.000000,,2013-04-28 13:42:00,
2013-04-28 08:52:00,54.0,49.0,-100.00,SSE,160,3.0,5.0,83,0.00,,,0.00,167.000000,,2013-04-28 13:52:00,
2013-04-28 09:02:00,54.0,49.0,-100.00,SSE,160,3.0,5.0,83,0.00,,,0.00,167.000000,,2013-04-28 14:02:00,
2013-04-28 09:32:00,60.0,47.0,-100.00,SSW,206,7.0,11.0,61,0.00,,,0.00,351.000000,,2013-04-28 14:32:00,
2013-04-28 09:42:00,60.0,47.0,-100.00,SSW,206,7.0,11.0,61,0.00,,,0.00,351.000000,,2013-04-28 14:42:00,
2013-04-28 09:52:00,60.0,47.0,-100.00,SSW,206,7.0,11.0,61,0.00,,,0.00,351.000000,,2013-04-28 14:52:00,
2013-04-28 10:02:00,60.0,47.0,-100.00,SSW,206,7.0,11.0,61,0.00,,,0.00,351.000000,,2013-04-28 15:02:00,
2013-04-28 10:33:00,63.0,45.0,-100.00,SSW,192,8.0,12.0,52,0.00,,,0.00,536.000000,,2013-04-28 15:33:00,
2013-04-28 10:42:00,63.0,45.0,-100.00,SSW,192,8.0,12.0,52,0.00,,,0.00,536.000000,,2013-04-28 15:42:00,
2013-04-28 10:53:00,63.0,45.0,-100.00,SSW,192,8.0,12.0,52,0.00,,,0.00,536.000000,,2013-04-28 15:53:00,
2013-04-28 11:03:00,63.0,45.0,-100.00,SSW,192,8.0,12.0,52,0.00,,,0.00,536.000000,,2013-04-28 16:03:00,
2013-04-28 11:33:00,66.0,43.0,-100.00,SSW,193,8.0,15.0,44,0.00,,,0.00,682.000000,,2013-04-28 16:33:00,
2013-04-28 11:43:00,66.0,43.0,-100.00,SSW,193,8.0,15.0,44,0.00,,,0.00,682.000000,,2013-04-28 16:43:00,
2013-04-28 11:52:00,66.0,43.0,-100.00,SSW,193,8.0,15.0,44,0.00,,,0.00,682.000000,,2013-04-28 16:52:00,
2013-04-28 12:02:00,66.0,43.0,-100.00,SSW,193,8.0,15.0,44,0.00,,,0.00,682.000000,,2013-04-28 17:02:00,
2013-04-28 12:32:00,68.0,43.0,-100.00,SSW,195,9.0,15.0,41,0.00,,,0.00,784.000000,,2013-04-28 17:32:00,
2013-04-28 12:43:00,68.0,43.0,-100.00,SSW,195,9.0,15.0,41,0.00,,,0.00,784.000000,,2013-04-28 17:43:00,
2013-04-28 12:52:00,68.0,43.0,-100.00,SSW,195,9.0,15.0,41,0.00,,,0.00,784.000000,,2013-04-28 17:52:00,
2013-04-28 13:02:00,68.0,43.0,-100.00,SSW,195,9.0,15.0,41,0.00,,,0.00,784.000000,,2013-04-28 18:02:00,
2013-04-28 13:32:00,70.0,43.0,-100.00,South,185,10.0,18.0,37,0.00,,,0.00,850.000000,,2013-04-28 18:32:00,
2013-04-28 13:42:00,70.0,43.0,-100.00,South,185,10.0,18.0,37,0.00,,,0.00,850.000000,,2013-04-28 18:42:00,
2013-04-28 13:52:00,70.0,43.0,-100.00,South,185,10.0,18.0,37,0.00,,,0.00,850.000000,,2013-04-28 18:52:00,
2013-04-28 14:02:00,70.0,43.0,-100.00,South,185,10.0,18.0,37,0.00,,,0.00,850.000000,,2013-04-28 19:02:00,
2013-04-28 14:32:00,72.0,41.0,-100.00,South,176,10.0,17.0,33,0.00,,,-99.99,836.000000,,2013-04-28 19:32:00,
2013-04-28 14:42:00,72.0,41.0,-100.00,South,176,10.0,17.0,33,0.00,,,-99.99,836.000000,,2013-04-28 19:42:00,
2013-04-28 14:52:00,72.0,41.0,-100.00,South,176,10.0,17.0,33,0.00,,,-99.99,836.000000,,2013-04-28 19:52:00,
2013-04-28 15:02:00,72.0,41.0,-100.00,South,176,10.0,17.0,33,0.00,,,-99.99,836.000000,,2013-04-28 20:02:00,
2013-04-28 15:33:00,74.0,41.0,-100.00,SSW,200,9.0,17.0,31,0.00,,,0.00,750.000000,,2013-04-28 20:33:00,
2013-04-28 15:42:00,74.0,41.0,-100.00,SSW,200,9.0,17.0,31,0.00,,,0.00,750.000000,,2013-04-28 20:42:00,
2013-04-28 15:52:00,74.0,41.0,-100.00,SSW,200,9.0,17.0,31,0.00,,,0.00,750.000000,,2013-04-28 20:52:00,
2013-04-28 16:01:00,74.0,41.0,-100.00,SSW,200,9.0,17.0,31,0.00,,,0.00,750.000000,,2013-04-28 21:01:00,
2013-04-28 16:33:00,74.0,41.0,-100.00,South,191,9.0,16.0,31,0.00,,,0.00,708.000000,,2013-04-28 21:33:00,
2013-04-28 16:42:00,74.0,41.0,-100.00,South,191,9.0,16.0,31,0.00,,,0.00,708.000000,,2013-04-28 21:42:00,
2013-04-28 16:53:00,74.0,41.0,-100.00,South,191,9.0,16.0,31,0.00,,,0.00,708.000000,,2013-04-28 21:53:00,
2013-04-28 17:03:00,74.0,41.0,-100.00,South,191,9.0,16.0,31,0.00,,,0.00,708.000000,,2013-04-28 22:03:00,
2013-04-28 17:34:00,75.0,43.0,-100.00,SSW,210,6.0,16.0,32,0.00,,,0.00,561.000000,,2013-04-28 22:34:00,
2013-04-28 17:42:00,75.0,43.0,-100.00,SSW,210,6.0,16.0,32,0.00,,,0.00,561.000000,,2013-04-28 22:42:00,
2013-04-28 17:52:00,75.0,43.0,-100.00,SSW,210,6.0,16.0,32,0.00,,,0.00,561.000000,,2013-04-28 22:52:00,
2013-04-28 18:02:00,75.0,43.0,-100.00,SSW,210,6.0,16.0,32,0.00,,,0.00,561.000000,,2013-04-28 23:02:00,
2013-04-28 18:32:00,74.0,43.0,-100.00,SW,216,9.0,15.0,33,0.00,,,0.00,391.000000,,2013-04-28 23:32:00,
2013-04-28 18:42:00,74.0,43.0,-100.00,SW,216,9.0,15.0,33,0.00,,,0.00,391.000000,,2013-04-28 23:42:00,
2013-04-28 18:52:00,74.0,43.0,-100.00,SW,216,9.0,15.0,33,0.00,,,0.00,391.000000,,2013-04-28 23:52:00,
2013-04-28 19:01:00,74.0,43.0,-100.00,SW,216,9.0,15.0,33,0.00,,,0.00,391.000000,,2013-04-29 00:01:00,
2013-04-28 20:32:00,66.0,44.0,-100.00,SSE,167,4.0,11.0,45,-99.99,,,0.00,22.000000,,2013-04-29 01:32:00,
2013-04-28 20:42:00,66.0,44.0,-100.00,SSE,167,4.0,11.0,45,-99.99,,,0.00,22.000000,,2013-04-29 01:42:00,
2013-04-28 20:52:00,66.0,44.0,-100.00,SSE,167,4.0,11.0,45,-99.99,,,0.00,22.000000,,2013-04-29 01:52:00,
2013-04-28 21:02:00,66.0,44.0,-100.00,SSE,167,4.0,11.0,45,-99.99,,,0.00,22.000000,,2013-04-29 02:02:00,
2013-04-28 21:32:00,61.0,45.0,-100.00,SSE,157,1.0,5.0,56,0.00,,,0.00,0.000000,,2013-04-29 02:32:00,
2013-04-28 21:42:00,61.0,45.0,-100.00,SSE,157,1.0,5.0,56,0.00,,,0.00,0.000000,,2013-04-29 02:42:00,
2013-04-28 21:52:00,61.0,45.0,-100.00,SSE,157,1.0,5.0,56,0.00,,,0.00,0.000000,,2013-04-29 02:52:00,
2013-04-28 22:01:00,61.0,45.0,-100.00,SSE,157,1.0,5.0,56,0.00,,,0.00,0.000000,,2013-04-29 03:01:00,
2013-04-28 22:33:00,63.0,42.0,-100.00,SSE,148,5.0,7.0,47,0.00,,,0.00,0.000000,,2013-04-29 03:33:00,
2013-04-28 22:43:00,63.0,42.0,-100.00,SSE,148,5.0,7.0,47,0.00,,,0.00,0.000000,,2013-04-29 03:43:00,
2013-04-28 22:53:00,63.0,42.0,-100.00,SSE,148,5.0,7.0,47,0.00,,,0.00,0.000000,,2013-04-29 03:53:00,
2013-04-28 23:03:00,63.0,42.0,-100.00,SSE,148,5.0,7.0,47,0.00,,,0.00,0.000000,,2013-04-29 04:03:00,
2013-04-28 23:33:00,64.0,45.0,-100.00,SSE,165,6.0,10.0,51,0.00,,,0.00,0.000000,,2013-04-29 04:33:00,
2013-04-28 23:43:00,64.0,45.0,-100.00,SSE,165,6.0,10.0,51,0.00,,,0.00,0.000000,,2013-04-29 04:43:00,
2013-04-28 23:52:00,64.0,45.0,-100.00,SSE,165,6.0,10.0,51,0.00,,,0.00,0.000000,,2013-04-29 04:52:00,